sensor_id;sensor_type;location;lat;lon;timestamp;temperature;humidity
51007;DHT22;37034;47.886;-3.904;2024-01-30T00:01:53;13.00;99.90
51007;DHT22;37034;47.886;-3.904;2024-01-30T00:04:19;13.10;99.90
51007;DHT22;37034;47.886;-3.904;2024-01-30T00:06:44;13.10;99.90
51007;DHT22;37034;47.886;-3.904;2024-01-30T00:09:10;13.10;99.90
51007;DHT22;37034;47.886;-3.904;2024-01-30T00:11:39;13.10;99.90
51007;DHT22;37034;47.886;-3.904;2024-01-30T00:14:05;13.00;99.90
51007;DHT22;37034;47.886;-3.904;2024-01-30T00:16:31;13.10;99.90
51007;DHT22;37034;47.886;-3.904;2024-01-30T00:18:57;13.00;99.90
51007;DHT22;37034;47.886;-3.904;2024-01-30T00:21:23;13.00;99.90
51007;DHT22;37034;47.886;-3.904;2024-01-30T00:23:49;13.00;99.90
51007;DHT22;37034;47.886;-3.904;2024-01-30T00:26:15;13.00;99.90
51007;DHT22;37034;47.886;-3.904;2024-01-30T00:28:41;12.90;99.90
51007;DHT22;37034;47.886;-3.904;2024-01-30T00:31:07;12.80;99.90
51007;DHT22;37034;47.886;-3.904;2024-01-30T00:33:34;12.80;99.90
51007;DHT22;37034;47.886;-3.904;2024-01-30T00:35:59;12.70;99.90
51007;DHT22;37034;47.886;-3.904;2024-01-30T00:38:25;12.70;99.90
51007;DHT22;37034;47.886;-3.904;2024-01-30T00:40:51;12.60;99.90
51007;DHT22;37034;47.886;-3.904;2024-01-30T00:43:17;12.60;99.90
51007;DHT22;37034;47.886;-3.904;2024-01-30T00:45:45;12.50;99.90
51007;DHT22;37034;47.886;-3.904;2024-01-30T00:48:11;12.50;99.90
51007;DHT22;37034;47.886;-3.904;2024-01-30T00:50:36;12.40;99.90
51007;DHT22;37034;47.886;-3.904;2024-01-30T00:53:02;12.30;99.90
51007;DHT22;37034;47.886;-3.904;2024-01-30T00:55:28;12.30;99.90
51007;DHT22;37034;47.886;-3.904;2024-01-30T00:57:53;12.30;99.90
51007;DHT22;37034;47.886;-3.904;2024-01-30T01:00:19;12.20;99.90
51007;DHT22;37034;47.886;-3.904;2024-01-30T01:02:46;12.10;99.90
51007;DHT22;37034;47.886;-3.904;2024-01-30T01:05:12;12.00;99.90
51007;DHT22;37034;47.886;-3.904;2024-01-30T01:07:37;12.00;99.90
51007;DHT22;37034;47.886;-3.904;2024-01-30T01:10:03;12.00;99.90
51007;DHT22;37034;47.886;-3.904;2024-01-30T01:12:29;11.90;99.90
51007;DHT22;37034;47.886;-3.904;2024-01-30T01:14:55;11.90;99.90
51007;DHT22;37034;47.886;-3.904;2024-01-30T01:17:20;11.90;99.90
51007;DHT22;37034;47.886;-3.904;2024-01-30T01:19:46;11.80;99.90
51007;DHT22;37034;47.886;-3.904;2024-01-30T01:22:12;11.80;99.90
51007;DHT22;37034;47.886;-3.904;2024-01-30T01:24:37;11.70;99.90
51007;DHT22;37034;47.886;-3.904;2024-01-30T01:27:03;11.70;99.90
51007;DHT22;37034;47.886;-3.904;2024-01-30T01:29:29;11.70;99.90
51007;DHT22;37034;47.886;-3.904;2024-01-30T01:31:55;11.60;99.90
51007;DHT22;37034;47.886;-3.904;2024-01-30T01:34:21;11.50;99.90
51007;DHT22;37034;47.886;-3.904;2024-01-30T01:36:47;11.50;99.90
51007;DHT22;37034;47.886;-3.904;2024-01-30T01:39:12;11.50;99.90
51007;DHT22;37034;47.886;-3.904;2024-01-30T01:41:38;11.50;99.90
51007;DHT22;37034;47.886;-3.904;2024-01-30T01:44:04;11.50;99.90
51007;DHT22;37034;47.886;-3.904;2024-01-30T01:46:33;11.40;99.90
51007;DHT22;37034;47.886;-3.904;2024-01-30T01:48:59;11.40;99.90
51007;DHT22;37034;47.886;-3.904;2024-01-30T01:51:27;11.30;99.90
51007;DHT22;37034;47.886;-3.904;2024-01-30T01:53:57;11.30;99.90
51007;DHT22;37034;47.886;-3.904;2024-01-30T01:56:24;11.30;99.90
51007;DHT22;37034;47.886;-3.904;2024-01-30T01:58:51;11.20;99.90
51007;DHT22;37034;47.886;-3.904;2024-01-30T02:01:20;11.20;99.90
51007;DHT22;37034;47.886;-3.904;2024-01-30T02:03:47;11.10;99.90
51007;DHT22;37034;47.886;-3.904;2024-01-30T02:06:14;11.10;99.90
51007;DHT22;37034;47.886;-3.904;2024-01-30T02:08:40;11.00;99.90
51007;DHT22;37034;47.886;-3.904;2024-01-30T02:11:06;11.00;99.90
51007;DHT22;37034;47.886;-3.904;2024-01-30T02:13:32;10.90;99.90
51007;DHT22;37034;47.886;-3.904;2024-01-30T02:15:57;10.90;99.90
51007;DHT22;37034;47.886;-3.904;2024-01-30T02:18:23;10.80;99.90
51007;DHT22;37034;47.886;-3.904;2024-01-30T02:20:49;10.80;99.90
51007;DHT22;37034;47.886;-3.904;2024-01-30T02:23:16;10.70;99.90
51007;DHT22;37034;47.886;-3.904;2024-01-30T02:25:43;10.60;99.90
51007;DHT22;37034;47.886;-3.904;2024-01-30T02:28:12;10.60;99.90
51007;DHT22;37034;47.886;-3.904;2024-01-30T02:30:39;10.60;99.90
51007;DHT22;37034;47.886;-3.904;2024-01-30T02:33:04;10.60;99.90
51007;DHT22;37034;47.886;-3.904;2024-01-30T02:35:30;10.50;99.90
51007;DHT22;37034;47.886;-3.904;2024-01-30T02:37:56;10.50;99.90
51007;DHT22;37034;47.886;-3.904;2024-01-30T02:40:22;10.40;99.90
51007;DHT22;37034;47.886;-3.904;2024-01-30T02:42:47;10.40;99.90
51007;DHT22;37034;47.886;-3.904;2024-01-30T02:45:13;10.30;99.90
51007;DHT22;37034;47.886;-3.904;2024-01-30T02:47:39;10.30;99.90
51007;DHT22;37034;47.886;-3.904;2024-01-30T02:50:06;10.20;99.90
51007;DHT22;37034;47.886;-3.904;2024-01-30T02:52:32;10.20;99.90
51007;DHT22;37034;47.886;-3.904;2024-01-30T02:54:58;10.20;99.90
51007;DHT22;37034;47.886;-3.904;2024-01-30T02:57:23;10.20;99.90
51007;DHT22;37034;47.886;-3.904;2024-01-30T02:59:49;10.20;99.90
51007;DHT22;37034;47.886;-3.904;2024-01-30T03:02:15;10.10;99.90
51007;DHT22;37034;47.886;-3.904;2024-01-30T03:04:43;10.10;99.90
51007;DHT22;37034;47.886;-3.904;2024-01-30T03:07:09;10.20;99.90
51007;DHT22;37034;47.886;-3.904;2024-01-30T03:09:36;10.20;99.90
51007;DHT22;37034;47.886;-3.904;2024-01-30T03:12:02;10.20;99.90
51007;DHT22;37034;47.886;-3.904;2024-01-30T03:14:29;10.30;99.90
51007;DHT22;37034;47.886;-3.904;2024-01-30T03:16:55;10.30;99.90
51007;DHT22;37034;47.886;-3.904;2024-01-30T03:19:20;10.20;99.90
51007;DHT22;37034;47.886;-3.904;2024-01-30T03:21:46;10.10;99.90
51007;DHT22;37034;47.886;-3.904;2024-01-30T03:24:12;10.10;99.90
51007;DHT22;37034;47.886;-3.904;2024-01-30T03:26:37;10.00;99.90
51007;DHT22;37034;47.886;-3.904;2024-01-30T03:29:03;10.00;99.90
51007;DHT22;37034;47.886;-3.904;2024-01-30T03:31:29;10.00;99.90
51007;DHT22;37034;47.886;-3.904;2024-01-30T03:33:54;10.00;99.90
51007;DHT22;37034;47.886;-3.904;2024-01-30T03:36:20;10.00;99.90
51007;DHT22;37034;47.886;-3.904;2024-01-30T03:38:46;10.00;99.90
51007;DHT22;37034;47.886;-3.904;2024-01-30T03:41:11;10.00;99.90
51007;DHT22;37034;47.886;-3.904;2024-01-30T03:43:37;10.00;99.90
51007;DHT22;37034;47.886;-3.904;2024-01-30T03:46:03;10.00;99.90
51007;DHT22;37034;47.886;-3.904;2024-01-30T03:48:29;10.00;99.90
51007;DHT22;37034;47.886;-3.904;2024-01-30T03:50:55;9.90;99.90
51007;DHT22;37034;47.886;-3.904;2024-01-30T03:53:22;9.90;99.90
51007;DHT22;37034;47.886;-3.904;2024-01-30T03:55:48;9.80;99.90
51007;DHT22;37034;47.886;-3.904;2024-01-30T03:58:13;9.70;99.90
51007;DHT22;37034;47.886;-3.904;2024-01-30T04:00:39;9.70;99.90
51007;DHT22;37034;47.886;-3.904;2024-01-30T04:03:06;9.70;99.90
51007;DHT22;37034;47.886;-3.904;2024-01-30T04:05:32;9.60;99.90
51007;DHT22;37034;47.886;-3.904;2024-01-30T04:07:57;9.70;99.90
51007;DHT22;37034;47.886;-3.904;2024-01-30T04:10:23;9.70;99.90
51007;DHT22;37034;47.886;-3.904;2024-01-30T04:12:50;9.80;99.90
51007;DHT22;37034;47.886;-3.904;2024-01-30T04:15:16;9.80;99.90
51007;DHT22;37034;47.886;-3.904;2024-01-30T04:17:42;9.90;99.90
51007;DHT22;37034;47.886;-3.904;2024-01-30T04:20:08;9.90;99.90
51007;DHT22;37034;47.886;-3.904;2024-01-30T04:22:33;10.00;99.90
51007;DHT22;37034;47.886;-3.904;2024-01-30T04:24:59;10.00;99.90
51007;DHT22;37034;47.886;-3.904;2024-01-30T04:27:24;10.00;99.90
51007;DHT22;37034;47.886;-3.904;2024-01-30T04:29:50;10.10;99.90
51007;DHT22;37034;47.886;-3.904;2024-01-30T04:32:16;10.10;99.90
51007;DHT22;37034;47.886;-3.904;2024-01-30T04:34:42;10.10;99.90
51007;DHT22;37034;47.886;-3.904;2024-01-30T04:37:07;10.10;99.90
51007;DHT22;37034;47.886;-3.904;2024-01-30T04:39:33;10.20;99.90
51007;DHT22;37034;47.886;-3.904;2024-01-30T04:41:59;10.20;99.90
51007;DHT22;37034;47.886;-3.904;2024-01-30T04:44:25;10.30;99.90
51007;DHT22;37034;47.886;-3.904;2024-01-30T04:46:50;10.30;99.90
51007;DHT22;37034;47.886;-3.904;2024-01-30T04:49:16;10.40;99.90
51007;DHT22;37034;47.886;-3.904;2024-01-30T04:51:41;10.40;99.90
51007;DHT22;37034;47.886;-3.904;2024-01-30T04:54:07;10.50;99.90
51007;DHT22;37034;47.886;-3.904;2024-01-30T04:56:33;10.60;99.90
51007;DHT22;37034;47.886;-3.904;2024-01-30T04:58:59;10.60;99.90
51007;DHT22;37034;47.886;-3.904;2024-01-30T05:01:25;10.60;99.90
51007;DHT22;37034;47.886;-3.904;2024-01-30T05:03:51;10.60;99.90
51007;DHT22;37034;47.886;-3.904;2024-01-30T05:06:26;10.60;99.90
51007;DHT22;37034;47.886;-3.904;2024-01-30T05:08:53;10.60;99.90
51007;DHT22;37034;47.886;-3.904;2024-01-30T05:11:18;10.60;99.90
51007;DHT22;37034;47.886;-3.904;2024-01-30T05:13:44;10.60;99.90
51007;DHT22;37034;47.886;-3.904;2024-01-30T05:16:10;10.60;99.90
51007;DHT22;37034;47.886;-3.904;2024-01-30T05:18:35;10.60;99.90
51007;DHT22;37034;47.886;-3.904;2024-01-30T05:21:02;10.60;99.90
51007;DHT22;37034;47.886;-3.904;2024-01-30T05:23:28;10.50;99.90
51007;DHT22;37034;47.886;-3.904;2024-01-30T05:25:53;10.50;99.90
51007;DHT22;37034;47.886;-3.904;2024-01-30T05:28:19;10.40;99.90
51007;DHT22;37034;47.886;-3.904;2024-01-30T05:30:45;10.40;99.90
51007;DHT22;37034;47.886;-3.904;2024-01-30T05:33:10;10.30;99.90
51007;DHT22;37034;47.886;-3.904;2024-01-30T05:35:37;10.20;99.90
51007;DHT22;37034;47.886;-3.904;2024-01-30T05:38:03;10.10;99.90
51007;DHT22;37034;47.886;-3.904;2024-01-30T05:40:32;10.10;99.90
51007;DHT22;37034;47.886;-3.904;2024-01-30T05:42:58;10.10;99.90
51007;DHT22;37034;47.886;-3.904;2024-01-30T05:45:26;10.00;99.90
51007;DHT22;37034;47.886;-3.904;2024-01-30T05:47:52;9.90;99.90
51007;DHT22;37034;47.886;-3.904;2024-01-30T05:50:18;9.90;99.90
51007;DHT22;37034;47.886;-3.904;2024-01-30T05:52:44;9.80;99.90
51007;DHT22;37034;47.886;-3.904;2024-01-30T05:55:11;9.70;99.90
51007;DHT22;37034;47.886;-3.904;2024-01-30T05:57:37;9.70;99.90
51007;DHT22;37034;47.886;-3.904;2024-01-30T06:00:04;9.70;99.90
51007;DHT22;37034;47.886;-3.904;2024-01-30T06:02:30;9.60;99.90
51007;DHT22;37034;47.886;-3.904;2024-01-30T06:04:56;9.60;99.90
51007;DHT22;37034;47.886;-3.904;2024-01-30T06:07:22;9.60;99.90
51007;DHT22;37034;47.886;-3.904;2024-01-30T06:09:47;9.60;99.90
51007;DHT22;37034;47.886;-3.904;2024-01-30T06:12:13;9.60;99.90
51007;DHT22;37034;47.886;-3.904;2024-01-30T06:14:39;9.60;99.90
51007;DHT22;37034;47.886;-3.904;2024-01-30T06:17:05;9.50;99.90
51007;DHT22;37034;47.886;-3.904;2024-01-30T06:19:30;9.50;99.90
51007;DHT22;37034;47.886;-3.904;2024-01-30T06:21:59;9.40;99.90
51007;DHT22;37034;47.886;-3.904;2024-01-30T06:24:25;9.40;99.90
51007;DHT22;37034;47.886;-3.904;2024-01-30T06:26:51;9.30;99.90
51007;DHT22;37034;47.886;-3.904;2024-01-30T06:29:16;9.30;99.90
51007;DHT22;37034;47.886;-3.904;2024-01-30T06:31:42;9.30;99.90
51007;DHT22;37034;47.886;-3.904;2024-01-30T06:34:09;9.30;99.90
51007;DHT22;37034;47.886;-3.904;2024-01-30T06:36:35;9.30;99.90
51007;DHT22;37034;47.886;-3.904;2024-01-30T06:39:02;9.30;99.90
51007;DHT22;37034;47.886;-3.904;2024-01-30T06:41:28;9.30;99.90
51007;DHT22;37034;47.886;-3.904;2024-01-30T06:43:53;9.20;99.90
51007;DHT22;37034;47.886;-3.904;2024-01-30T06:46:19;9.30;99.90
51007;DHT22;37034;47.886;-3.904;2024-01-30T06:48:44;9.20;99.90
51007;DHT22;37034;47.886;-3.904;2024-01-30T06:51:11;9.20;99.90
51007;DHT22;37034;47.886;-3.904;2024-01-30T06:53:37;9.20;99.90
51007;DHT22;37034;47.886;-3.904;2024-01-30T06:56:03;9.20;99.90
51007;DHT22;37034;47.886;-3.904;2024-01-30T06:58:29;9.20;99.90
51007;DHT22;37034;47.886;-3.904;2024-01-30T07:00:55;9.10;99.90
51007;DHT22;37034;47.886;-3.904;2024-01-30T07:03:21;9.10;99.90
51007;DHT22;37034;47.886;-3.904;2024-01-30T07:05:47;9.20;99.90
51007;DHT22;37034;47.886;-3.904;2024-01-30T07:08:13;9.20;99.90
51007;DHT22;37034;47.886;-3.904;2024-01-30T07:10:38;9.20;99.90
51007;DHT22;37034;47.886;-3.904;2024-01-30T07:13:04;9.20;99.90
51007;DHT22;37034;47.886;-3.904;2024-01-30T07:15:31;9.10;99.90
51007;DHT22;37034;47.886;-3.904;2024-01-30T07:17:57;9.10;99.90
51007;DHT22;37034;47.886;-3.904;2024-01-30T07:20:22;9.10;99.90
51007;DHT22;37034;47.886;-3.904;2024-01-30T07:22:49;9.10;99.90
51007;DHT22;37034;47.886;-3.904;2024-01-30T07:25:15;9.20;99.90
51007;DHT22;37034;47.886;-3.904;2024-01-30T07:27:42;9.10;99.90
51007;DHT22;37034;47.886;-3.904;2024-01-30T07:30:08;9.10;99.90
51007;DHT22;37034;47.886;-3.904;2024-01-30T07:32:33;9.20;99.90
51007;DHT22;37034;47.886;-3.904;2024-01-30T07:34:59;9.10;99.90
51007;DHT22;37034;47.886;-3.904;2024-01-30T07:37:24;9.10;99.90
51007;DHT22;37034;47.886;-3.904;2024-01-30T07:39:50;9.00;99.90
51007;DHT22;37034;47.886;-3.904;2024-01-30T07:42:16;9.00;99.90
51007;DHT22;37034;47.886;-3.904;2024-01-30T07:44:43;9.00;99.90
51007;DHT22;37034;47.886;-3.904;2024-01-30T07:47:08;8.90;99.90
51007;DHT22;37034;47.886;-3.904;2024-01-30T07:49:34;8.90;99.90
51007;DHT22;37034;47.886;-3.904;2024-01-30T07:52:00;8.90;99.90
51007;DHT22;37034;47.886;-3.904;2024-01-30T07:54:26;8.90;99.90
51007;DHT22;37034;47.886;-3.904;2024-01-30T07:56:51;9.00;99.90
51007;DHT22;37034;47.886;-3.904;2024-01-30T07:59:17;9.00;99.90
51007;DHT22;37034;47.886;-3.904;2024-01-30T08:01:44;9.00;99.90
51007;DHT22;37034;47.886;-3.904;2024-01-30T08:04:10;8.90;99.90
51007;DHT22;37034;47.886;-3.904;2024-01-30T08:06:36;8.90;99.90
51007;DHT22;37034;47.886;-3.904;2024-01-30T08:09:01;8.80;99.90
51007;DHT22;37034;47.886;-3.904;2024-01-30T08:11:27;8.80;99.90
51007;DHT22;37034;47.886;-3.904;2024-01-30T08:13:55;8.80;99.90
51007;DHT22;37034;47.886;-3.904;2024-01-30T08:16:20;8.70;99.90
51007;DHT22;37034;47.886;-3.904;2024-01-30T08:18:46;8.70;99.90
51007;DHT22;37034;47.886;-3.904;2024-01-30T08:21:12;8.80;99.90
51007;DHT22;37034;47.886;-3.904;2024-01-30T08:23:40;8.90;99.90
51007;DHT22;37034;47.886;-3.904;2024-01-30T08:26:06;8.90;99.90
51007;DHT22;37034;47.886;-3.904;2024-01-30T08:28:32;8.90;99.90
51007;DHT22;37034;47.886;-3.904;2024-01-30T08:30:58;9.00;99.90
51007;DHT22;37034;47.886;-3.904;2024-01-30T08:33:24;9.10;99.90
51007;DHT22;37034;47.886;-3.904;2024-01-30T08:35:50;9.10;99.90
51007;DHT22;37034;47.886;-3.904;2024-01-30T08:38:15;9.20;99.90
51007;DHT22;37034;47.886;-3.904;2024-01-30T08:40:41;9.20;99.90
51007;DHT22;37034;47.886;-3.904;2024-01-30T08:43:07;9.20;99.90
51007;DHT22;37034;47.886;-3.904;2024-01-30T08:45:34;9.30;99.90
51007;DHT22;37034;47.886;-3.904;2024-01-30T08:48:00;9.40;99.90
51007;DHT22;37034;47.886;-3.904;2024-01-30T08:50:25;9.50;99.90
51007;DHT22;37034;47.886;-3.904;2024-01-30T08:52:51;9.50;99.90
51007;DHT22;37034;47.886;-3.904;2024-01-30T08:55:17;9.50;99.90
51007;DHT22;37034;47.886;-3.904;2024-01-30T08:57:43;9.50;99.90
51007;DHT22;37034;47.886;-3.904;2024-01-30T09:00:09;9.60;99.90
51007;DHT22;37034;47.886;-3.904;2024-01-30T09:02:35;9.60;99.90
51007;DHT22;37034;47.886;-3.904;2024-01-30T09:05:01;9.70;99.90
51007;DHT22;37034;47.886;-3.904;2024-01-30T09:07:27;9.70;99.90
51007;DHT22;37034;47.886;-3.904;2024-01-30T09:09:52;9.80;99.90
51007;DHT22;37034;47.886;-3.904;2024-01-30T09:12:18;9.90;99.90
51007;DHT22;37034;47.886;-3.904;2024-01-30T09:14:44;10.00;99.90
51007;DHT22;37034;47.886;-3.904;2024-01-30T09:17:09;10.10;99.90
51007;DHT22;37034;47.886;-3.904;2024-01-30T09:19:35;10.30;99.90
51007;DHT22;37034;47.886;-3.904;2024-01-30T09:22:01;10.30;99.90
51007;DHT22;37034;47.886;-3.904;2024-01-30T09:24:27;10.40;99.90
51007;DHT22;37034;47.886;-3.904;2024-01-30T09:26:53;10.50;99.90
51007;DHT22;37034;47.886;-3.904;2024-01-30T09:29:19;10.50;99.90
51007;DHT22;37034;47.886;-3.904;2024-01-30T09:31:45;10.60;99.90
51007;DHT22;37034;47.886;-3.904;2024-01-30T09:34:11;10.70;99.90
51007;DHT22;37034;47.886;-3.904;2024-01-30T09:36:37;10.70;99.90
51007;DHT22;37034;47.886;-3.904;2024-01-30T09:39:02;10.80;99.90
51007;DHT22;37034;47.886;-3.904;2024-01-30T09:41:32;10.90;99.90
51007;DHT22;37034;47.886;-3.904;2024-01-30T09:43:59;10.90;99.90
51007;DHT22;37034;47.886;-3.904;2024-01-30T09:46:27;11.00;99.90
51007;DHT22;37034;47.886;-3.904;2024-01-30T09:48:55;11.00;99.90
51007;DHT22;37034;47.886;-3.904;2024-01-30T09:51:21;11.20;99.90
51007;DHT22;37034;47.886;-3.904;2024-01-30T09:53:48;11.40;99.90
51007;DHT22;37034;47.886;-3.904;2024-01-30T09:56:14;11.50;99.90
51007;DHT22;37034;47.886;-3.904;2024-01-30T09:58:40;11.70;99.90
51007;DHT22;37034;47.886;-3.904;2024-01-30T10:01:06;11.80;99.90
51007;DHT22;37034;47.886;-3.904;2024-01-30T10:03:32;11.90;99.90
51007;DHT22;37034;47.886;-3.904;2024-01-30T10:05:59;12.00;99.90
51007;DHT22;37034;47.886;-3.904;2024-01-30T10:08:26;12.20;99.90
51007;DHT22;37034;47.886;-3.904;2024-01-30T10:10:52;12.30;99.90
51007;DHT22;37034;47.886;-3.904;2024-01-30T10:13:18;12.40;99.90
51007;DHT22;37034;47.886;-3.904;2024-01-30T10:15:44;12.50;99.90
51007;DHT22;37034;47.886;-3.904;2024-01-30T10:18:10;12.60;99.90
51007;DHT22;37034;47.886;-3.904;2024-01-30T10:20:36;12.70;99.90
51007;DHT22;37034;47.886;-3.904;2024-01-30T10:23:02;12.70;99.90
51007;DHT22;37034;47.886;-3.904;2024-01-30T10:25:29;12.80;99.90
51007;DHT22;37034;47.886;-3.904;2024-01-30T10:27:56;12.80;99.90
51007;DHT22;37034;47.886;-3.904;2024-01-30T10:30:22;12.80;99.90
51007;DHT22;37034;47.886;-3.904;2024-01-30T10:32:48;12.80;99.90
51007;DHT22;37034;47.886;-3.904;2024-01-30T10:35:15;12.90;99.90
51007;DHT22;37034;47.886;-3.904;2024-01-30T10:37:43;13.00;99.90
51007;DHT22;37034;47.886;-3.904;2024-01-30T10:40:09;13.00;99.90
51007;DHT22;37034;47.886;-3.904;2024-01-30T10:42:44;13.00;99.90
51007;DHT22;37034;47.886;-3.904;2024-01-30T10:45:13;13.00;99.90
51007;DHT22;37034;47.886;-3.904;2024-01-30T10:47:44;13.10;99.90
51007;DHT22;37034;47.886;-3.904;2024-01-30T10:50:14;13.00;99.90
51007;DHT22;37034;47.886;-3.904;2024-01-30T10:52:41;13.10;99.90
51007;DHT22;37034;47.886;-3.904;2024-01-30T10:55:08;13.20;99.90
51007;DHT22;37034;47.886;-3.904;2024-01-30T10:57:37;13.20;99.90
51007;DHT22;37034;47.886;-3.904;2024-01-30T11:00:10;13.40;99.90
51007;DHT22;37034;47.886;-3.904;2024-01-30T11:02:43;13.50;99.90
51007;DHT22;37034;47.886;-3.904;2024-01-30T11:05:10;13.50;99.90
51007;DHT22;37034;47.886;-3.904;2024-01-30T11:07:36;13.50;99.90
51007;DHT22;37034;47.886;-3.904;2024-01-30T11:10:04;13.60;99.90
51007;DHT22;37034;47.886;-3.904;2024-01-30T11:12:37;13.70;99.90
51007;DHT22;37034;47.886;-3.904;2024-01-30T11:15:10;14.00;99.90
51007;DHT22;37034;47.886;-3.904;2024-01-30T11:17:50;14.10;99.90
51007;DHT22;37034;47.886;-3.904;2024-01-30T11:22:49;14.30;99.90
51007;DHT22;37034;47.886;-3.904;2024-01-30T11:25:18;14.40;99.90
51007;DHT22;37034;47.886;-3.904;2024-01-30T11:27:45;14.50;99.90
51007;DHT22;37034;47.886;-3.904;2024-01-30T11:30:20;14.50;99.90
51007;DHT22;37034;47.886;-3.904;2024-01-30T11:33:11;14.30;99.90
51007;DHT22;37034;47.886;-3.904;2024-01-30T11:35:38;14.30;99.90
51007;DHT22;37034;47.886;-3.904;2024-01-30T11:38:06;14.30;99.90
51007;DHT22;37034;47.886;-3.904;2024-01-30T11:40:33;14.50;99.90
51007;DHT22;37034;47.886;-3.904;2024-01-30T11:43:00;14.60;99.90
51007;DHT22;37034;47.886;-3.904;2024-01-30T11:45:27;14.70;99.90
51007;DHT22;37034;47.886;-3.904;2024-01-30T11:47:53;14.70;99.90
51007;DHT22;37034;47.886;-3.904;2024-01-30T11:50:19;14.70;99.90
51007;DHT22;37034;47.886;-3.904;2024-01-30T11:52:44;14.60;99.90
51007;DHT22;37034;47.886;-3.904;2024-01-30T11:55:10;14.60;99.90
51007;DHT22;37034;47.886;-3.904;2024-01-30T11:57:36;14.50;99.90
51007;DHT22;37034;47.886;-3.904;2024-01-30T12:00:06;14.50;99.90
51007;DHT22;37034;47.886;-3.904;2024-01-30T12:02:36;14.40;99.90
51007;DHT22;37034;47.886;-3.904;2024-01-30T12:05:06;14.30;99.90
51007;DHT22;37034;47.886;-3.904;2024-01-30T12:07:32;14.10;99.90
51007;DHT22;37034;47.886;-3.904;2024-01-30T12:09:57;13.90;99.90
51007;DHT22;37034;47.886;-3.904;2024-01-30T12:12:27;13.80;99.90
51007;DHT22;37034;47.886;-3.904;2024-01-30T12:14:54;13.70;99.90
51007;DHT22;37034;47.886;-3.904;2024-01-30T12:17:30;13.70;99.90
51007;DHT22;37034;47.886;-3.904;2024-01-30T12:22:40;13.50;99.90
51007;DHT22;37034;47.886;-3.904;2024-01-30T12:25:17;13.50;99.90
51007;DHT22;37034;47.886;-3.904;2024-01-30T12:27:45;13.50;99.90
51007;DHT22;37034;47.886;-3.904;2024-01-30T12:30:12;13.60;99.90
51007;DHT22;37034;47.886;-3.904;2024-01-30T12:32:45;13.60;99.90
51007;DHT22;37034;47.886;-3.904;2024-01-30T12:35:12;13.40;99.90
51007;DHT22;37034;47.886;-3.904;2024-01-30T12:37:38;13.30;99.90
51007;DHT22;37034;47.886;-3.904;2024-01-30T12:40:05;13.40;99.90
51007;DHT22;37034;47.886;-3.904;2024-01-30T12:42:31;13.40;99.90
51007;DHT22;37034;47.886;-3.904;2024-01-30T12:45:02;13.40;99.90
51007;DHT22;37034;47.886;-3.904;2024-01-30T12:47:27;13.50;99.90
51007;DHT22;37034;47.886;-3.904;2024-01-30T12:49:53;13.60;99.90
51007;DHT22;37034;47.886;-3.904;2024-01-30T12:52:20;13.70;99.90
51007;DHT22;37034;47.886;-3.904;2024-01-30T12:54:49;13.80;99.90
51007;DHT22;37034;47.886;-3.904;2024-01-30T12:57:15;13.80;99.90
51007;DHT22;37034;47.886;-3.904;2024-01-30T12:59:41;13.80;99.90
51007;DHT22;37034;47.886;-3.904;2024-01-30T13:02:07;13.80;99.90
51007;DHT22;37034;47.886;-3.904;2024-01-30T13:04:33;13.70;99.90
51007;DHT22;37034;47.886;-3.904;2024-01-30T13:06:59;13.70;99.90
51007;DHT22;37034;47.886;-3.904;2024-01-30T13:09:26;13.80;99.90
51007;DHT22;37034;47.886;-3.904;2024-01-30T13:11:51;13.90;99.90
51007;DHT22;37034;47.886;-3.904;2024-01-30T13:14:19;14.00;99.90
51007;DHT22;37034;47.886;-3.904;2024-01-30T13:16:45;14.10;99.90
51007;DHT22;37034;47.886;-3.904;2024-01-30T13:19:10;13.90;99.90
51007;DHT22;37034;47.886;-3.904;2024-01-30T13:21:36;13.90;99.90
51007;DHT22;37034;47.886;-3.904;2024-01-30T13:24:03;13.90;99.90
51007;DHT22;37034;47.886;-3.904;2024-01-30T13:26:28;14.00;99.90
51007;DHT22;37034;47.886;-3.904;2024-01-30T13:28:56;14.00;99.90
51007;DHT22;37034;47.886;-3.904;2024-01-30T13:31:21;14.10;99.90
51007;DHT22;37034;47.886;-3.904;2024-01-30T13:33:47;14.10;99.90
51007;DHT22;37034;47.886;-3.904;2024-01-30T13:36:14;14.00;99.90
51007;DHT22;37034;47.886;-3.904;2024-01-30T13:38:40;14.00;99.90
51007;DHT22;37034;47.886;-3.904;2024-01-30T13:41:06;14.00;99.90
51007;DHT22;37034;47.886;-3.904;2024-01-30T13:43:31;14.20;99.90
51007;DHT22;37034;47.886;-3.904;2024-01-30T13:45:57;14.10;99.90
51007;DHT22;37034;47.886;-3.904;2024-01-30T13:48:23;14.10;99.90
51007;DHT22;37034;47.886;-3.904;2024-01-30T13:50:48;14.10;99.90
51007;DHT22;37034;47.886;-3.904;2024-01-30T13:53:14;13.90;99.90
51007;DHT22;37034;47.886;-3.904;2024-01-30T13:55:40;13.90;99.90
51007;DHT22;37034;47.886;-3.904;2024-01-30T13:58:06;13.90;99.90
51007;DHT22;37034;47.886;-3.904;2024-01-30T14:00:32;13.90;99.90
51007;DHT22;37034;47.886;-3.904;2024-01-30T14:02:59;13.80;99.90
51007;DHT22;37034;47.886;-3.904;2024-01-30T14:05:25;13.90;99.90
51007;DHT22;37034;47.886;-3.904;2024-01-30T14:07:51;14.00;99.90
51007;DHT22;37034;47.886;-3.904;2024-01-30T14:10:17;14.10;99.90
51007;DHT22;37034;47.886;-3.904;2024-01-30T14:12:44;14.10;99.90
51007;DHT22;37034;47.886;-3.904;2024-01-30T14:15:10;14.00;99.90
51007;DHT22;37034;47.886;-3.904;2024-01-30T14:17:36;14.00;99.90
51007;DHT22;37034;47.886;-3.904;2024-01-30T14:20:03;13.90;99.90
51007;DHT22;37034;47.886;-3.904;2024-01-30T14:22:33;13.90;99.90
51007;DHT22;37034;47.886;-3.904;2024-01-30T14:24:59;14.00;99.90
51007;DHT22;37034;47.886;-3.904;2024-01-30T14:27:24;14.20;99.90
51007;DHT22;37034;47.886;-3.904;2024-01-30T14:29:50;14.20;99.90
51007;DHT22;37034;47.886;-3.904;2024-01-30T14:32:16;14.20;99.90
51007;DHT22;37034;47.886;-3.904;2024-01-30T14:34:41;14.20;99.80
51007;DHT22;37034;47.886;-3.904;2024-01-30T14:37:07;14.10;99.90
51007;DHT22;37034;47.886;-3.904;2024-01-30T14:39:33;14.10;99.90
51007;DHT22;37034;47.886;-3.904;2024-01-30T14:41:59;14.00;99.50
51007;DHT22;37034;47.886;-3.904;2024-01-30T14:44:25;13.90;99.90
51007;DHT22;37034;47.886;-3.904;2024-01-30T14:46:51;14.00;99.90
51007;DHT22;37034;47.886;-3.904;2024-01-30T14:49:17;14.00;99.90
51007;DHT22;37034;47.886;-3.904;2024-01-30T14:51:42;14.10;99.90
51007;DHT22;37034;47.886;-3.904;2024-01-30T14:54:08;14.00;99.80
51007;DHT22;37034;47.886;-3.904;2024-01-30T14:56:34;14.00;99.90
51007;DHT22;37034;47.886;-3.904;2024-01-30T14:59:00;13.90;99.90
51007;DHT22;37034;47.886;-3.904;2024-01-30T15:01:26;13.90;99.60
51007;DHT22;37034;47.886;-3.904;2024-01-30T15:03:51;13.90;99.80
51007;DHT22;37034;47.886;-3.904;2024-01-30T15:06:18;13.90;99.70
51007;DHT22;37034;47.886;-3.904;2024-01-30T15:08:44;13.90;99.80
51007;DHT22;37034;47.886;-3.904;2024-01-30T15:11:10;13.90;99.90
51007;DHT22;37034;47.886;-3.904;2024-01-30T15:13:36;13.80;99.40
51007;DHT22;37034;47.886;-3.904;2024-01-30T15:16:02;13.80;99.20
51007;DHT22;37034;47.886;-3.904;2024-01-30T15:18:30;13.70;99.30
51007;DHT22;37034;47.886;-3.904;2024-01-30T15:20:56;13.70;99.50